Terminal Aerodrome Forecast
Issued by NWS

Home | Current Version | Previous Version | Text Only | Print | Product List | Glossary On
Versions: 1 2 3 4 5 6 7 8 9 10 11 12 13 14
000
FTUS43 KBIS 292332
TAFJMS
TAF
KJMS 292332Z 3000/3024 02006KT P6SM SCT120
     FM300600 06005KT P6SM SCT100
     FM301500 12009KT P6SM VCSH BKN070 OVC100
     FM302100 12007KT P6SM VCSH OVC070=

USA.gov is the U.S. government's official web portal to all federal, state and local government web resources and services.